Terminal Aerodrome Forecast
Issued by NWS

Home | Current Version | Previous Version | Text Only | Print | Product List | Glossary On
Versions: 1 2 3 4 5 6 7 8 9 10 11 12 13 14 15
000
FTUS44 KEPZ 010600 RRA
TAFTCS
TAF
KTCS 010552Z 0106/0206 01010G18KT P6SM -SHRA SCT015 BKN050 OVC090
     FM010900 30009KT P6SM FEW015 SCT050 BKN090
     FM011500 VRB04KT P6SM FEW040 BKN080 OVC220
     FM012000 16006KT P6SM SCT040 BKN080 BKN220
     FM020100 11008KT P6SM VCSH BKN040 BKN080 OVC220=

USA.gov is the U.S. government's official web portal to all federal, state and local government web resources and services.